Time;durP1;ratioP1;P1;durP2;ratioP2;P2;SDS_P1;SDS_P2;PMS_P1;PMS_P2;Temp;Humidity;BMP_temperature;BMP_pressure;BME280_temperature;BME280_humidity;BME280_pressure;Samples;Min_cycle;Max_cycle;Signal;HPM_P1;HPM_P2
2022/01/12 00:00:44;;;;;;;66.93;10.05;;;;;;;;;;5116353;28;20208;-67
2022/01/12 00:03:11;;;;;;;70.78;10.90;;;;;;;;;;5116267;28;20229;-67
2022/01/12 00:05:39;;;;;;;71.20;11.63;;;;;;;;;;5116154;28;20298;-67
2022/01/12 00:08:07;;;;;;;68.72;10.77;;;;;;;;;;5115585;28;20718;-67
2022/01/12 00:10:35;;;;;;;70.70;10.57;;;;;;;;;;5115798;28;20668;-66
2022/01/12 00:13:02;;;;;;;69.20;10.40;;;;;;;;;;5115849;28;20592;-67
2022/01/12 00:15:30;;;;;;;69.47;10.18;;;;;;;;;;5115643;28;20209;-67
2022/01/12 00:17:57;;;;;;;66.63;9.95;;;;;;;;;;5114892;28;20247;-66
2022/01/12 00:20:25;;;;;;;66.53;10.00;;;;;;;;;;5115647;28;20577;-67
2022/01/12 00:22:53;;;;;;;68.72;9.88;;;;;;;;;;5113717;28;20662;-67
2022/01/12 00:25:27;;;;;;;67.25;9.90;;;;;;;;;;5115701;28;20208;-67
2022/01/12 00:33:25;;;;;;;69.15;10.70;;;;;;;;;;5094448;28;20226;-67
2022/01/12 00:35:54;;;;;;;67.53;9.52;;;;;;;;;;5094909;28;20207;-67
2022/01/12 00:38:23;;;;;;;66.82;9.52;;;;;;;;;;5094770;28;20219;-66
2022/01/12 00:40:51;;;;;;;66.47;9.73;;;;;;;;;;5095059;28;20258;-66
2022/01/12 00:43:19;;;;;;;68.28;10.45;;;;;;;;;;5094854;28;20256;-66
2022/01/12 00:45:48;;;;;;;67.43;10.13;;;;;;;;;;5094540;28;20661;-65
2022/01/12 00:48:16;;;;;;;69.70;10.25;;;;;;;;;;5094234;28;20287;-66
2022/01/12 00:50:43;;;;;;;72.50;11.43;;;;;;;;;;5094611;28;20209;-66
2022/01/12 00:53:10;;;;;;;68.22;10.80;;;;;;;;;;5095157;28;20340;-66
2022/01/12 00:55:38;;;;;;;73.30;11.60;;;;;;;;;;5114833;28;20200;-66
2022/01/12 00:58:06;;;;;;;72.75;13.00;;;;;;;;;;5114529;28;20238;-66
2022/01/12 01:00:33;;;;;;;71.15;12.63;;;;;;;;;;5114565;28;20215;-66
2022/01/12 01:03:02;;;;;;;69.68;11.45;;;;;;;;;;5114317;28;20692;-66
2022/01/12 01:05:32;;;;;;;71.75;11.15;;;;;;;;;;5114329;28;20208;-66
2022/01/12 01:07:59;;;;;;;68.28;9.80;;;;;;;;;;5114020;27;20680;-66
2022/01/12 01:10:36;;;;;;;72.65;11.98;;;;;;;;;;5114353;28;20668;-66
2022/01/12 01:13:03;;;;;;;68.72;11.07;;;;;;;;;;5114162;28;20257;-66
2022/01/12 01:15:52;;;;;;;69.70;11.13;;;;;;;;;;5114590;28;20210;-66
2022/01/12 01:26:34;;;;;;;71.00;10.63;;;;;;;;;;5112083;28;20235;-66
2022/01/12 01:29:01;;;;;;;69.15;10.20;;;;;;;;;;5113833;27;20307;-66
2022/01/12 01:31:31;;;;;;;69.03;11.80;;;;;;;;;;5113152;28;20679;-66
2022/01/12 01:34:06;;;;;;;66.65;10.00;;;;;;;;;;5113949;28;20200;-66
2022/01/12 01:36:33;;;;;;;68.95;10.80;;;;;;;;;;5114113;28;20337;-66
2022/01/12 01:39:00;;;;;;;68.78;10.90;;;;;;;;;;5113898;28;20708;-66
2022/01/12 01:41:28;;;;;;;69.75;10.32;;;;;;;;;;5113343;28;20587;-66
2022/01/12 01:44:20;;;;;;;70.22;11.45;;;;;;;;;;5113422;28;20231;-66
2022/01/12 01:55:05;;;;;;;66.03;10.23;;;;;;;;;;5113014;28;20253;-66
2022/01/12 01:57:32;;;;;;;65.68;10.30;;;;;;;;;;5111219;28;20259;-66
2022/01/12 01:59:59;;;;;;;67.50;10.43;;;;;;;;;;5113308;28;20739;-66
2022/01/12 02:02:26;;;;;;;65.70;9.60;;;;;;;;;;5112721;28;20232;-66
2022/01/12 02:04:55;;;;;;;67.80;9.52;;;;;;;;;;5112729;28;20258;-66
2022/01/12 02:07:22;;;;;;;66.00;8.82;;;;;;;;;;5112347;28;20204;-65
2022/01/12 02:09:49;;;;;;;69.07;9.02;;;;;;;;;;5113022;27;20587;-67
2022/01/12 02:12:24;;;;;;;66.47;8.73;;;;;;;;;;5112572;28;20231;-66
2022/01/12 02:14:52;;;;;;;65.38;8.50;;;;;;;;;;5107915;28;20339;-66
2022/01/12 02:17:23;;;;;;;64.88;8.93;;;;;;;;;;5092314;28;20204;-66
2022/01/12 02:20:07;;;;;;;66.75;10.00;;;;;;;;;;5092435;28;20585;-66
2022/01/12 02:36:24;;;;;;;70.22;10.52;;;;;;;;;;5104119;28;20230;-66
2022/01/12 02:41:39;;;;;;;72.03;9.80;;;;;;;;;;5111842;28;20227;-66
2022/01/12 02:55:08;;;;;;;66.28;8.35;;;;;;;;;;5112350;28;20241;-66
2022/01/12 02:57:35;;;;;;;66.45;9.35;;;;;;;;;;5112199;28;20211;-66
2022/01/12 03:00:07;;;;;;;66.93;9.57;;;;;;;;;;5110458;28;20660;-66
2022/01/12 03:02:37;;;;;;;70.75;9.52;;;;;;;;;;5112347;28;20259;-66
2022/01/12 03:07:49;;;;;;;66.20;9.20;;;;;;;;;;5112221;28;20679;-66
2022/01/12 03:10:17;;;;;;;68.55;9.35;;;;;;;;;;5112465;28;20207;-66
2022/01/12 03:12:45;;;;;;;64.82;8.95;;;;;;;;;;5111880;28;20224;-66
2022/01/12 03:15:13;;;;;;;69.78;10.50;;;;;;;;;;5112065;28;20228;-66
2022/01/12 03:17:40;;;;;;;66.30;10.05;;;;;;;;;;5111932;28;20204;-66
2022/01/12 03:20:08;;;;;;;66.32;9.52;;;;;;;;;;5112321;28;20212;-66
2022/01/12 03:22:36;;;;;;;67.47;9.00;;;;;;;;;;5111937;28;20228;-66
2022/01/12 03:25:03;;;;;;;67.35;9.23;;;;;;;;;;5112054;28;20235;-66
2022/01/12 03:27:31;;;;;;;69.57;9.70;;;;;;;;;;5111766;28;20200;-66
2022/01/12 03:29:59;;;;;;;68.38;11.55;;;;;;;;;;5111784;28;20212;-66
2022/01/12 03:32:37;;;;;;;66.07;8.95;;;;;;;;;;5097673;28;20224;-66
2022/01/12 03:35:12;;;;;;;65.82;9.32;;;;;;;;;;5092154;28;20204;-66
2022/01/12 03:37:42;;;;;;;67.13;9.20;;;;;;;;;;5091386;28;20289;-66
2022/01/12 03:40:10;;;;;;;66.68;9.73;;;;;;;;;;5091452;28;20212;-66
2022/01/12 03:42:39;;;;;;;69.57;9.10;;;;;;;;;;5091615;28;20240;-66
2022/01/12 03:45:07;;;;;;;66.35;9.32;;;;;;;;;;5091513;28;20681;-66
2022/01/12 03:47:34;;;;;;;68.55;9.40;;;;;;;;;;5091312;28;20358;-66
2022/01/12 03:50:02;;;;;;;70.25;10.27;;;;;;;;;;5091523;28;20291;-66
2022/01/12 03:52:29;;;;;;;66.13;8.10;;;;;;;;;;5091081;28;20312;-66
2022/01/12 03:54:56;;;;;;;65.70;9.20;;;;;;;;;;5094093;28;20212;-66
2022/01/12 03:57:23;;;;;;;67.35;9.60;;;;;;;;;;5094942;28;20231;-66
2022/01/12 03:59:51;;;;;;;65.13;8.57;;;;;;;;;;5095094;28;20211;-66
2022/01/12 04:02:19;;;;;;;67.68;9.60;;;;;;;;;;5094541;28;20231;-66
2022/01/12 04:05:08;;;;;;;64.90;8.45;;;;;;;;;;5093656;28;20209;-66
2022/01/12 04:10:20;;;;;;;68.97;9.75;;;;;;;;;;5094950;28;20223;-66
2022/01/12 04:12:47;;;;;;;68.55;10.10;;;;;;;;;;5094635;28;20323;-66
2022/01/12 04:15:16;;;;;;;65.18;9.45;;;;;;;;;;5095358;28;20237;-66
2022/01/12 04:17:43;;;;;;;68.25;9.20;;;;;;;;;;5094767;28;20259;-66
2022/01/12 04:20:10;;;;;;;69.88;10.50;;;;;;;;;;5094903;28;20630;-66
2022/01/12 04:25:25;;;;;;;65.63;9.55;;;;;;;;;;5094721;28;20276;-66
2022/01/12 04:27:52;;;;;;;68.18;9.93;;;;;;;;;;5094160;28;20262;-66
2022/01/12 04:30:20;;;;;;;66.95;8.45;;;;;;;;;;5094335;28;20540;-66
2022/01/12 04:32:47;;;;;;;66.68;8.82;;;;;;;;;;5094220;28;20313;-66
2022/01/12 04:35:16;;;;;;;67.30;9.32;;;;;;;;;;5105578;28;20588;-66
2022/01/12 04:37:43;;;;;;;65.90;9.25;;;;;;;;;;5124573;28;20642;-66
2022/01/12 04:40:11;;;;;;;69.95;9.73;;;;;;;;;;5128917;28;20747;-66
2022/01/12 04:42:38;;;;;;;68.38;8.95;;;;;;;;;;5127505;28;20228;-66
2022/01/12 04:45:29;;;;;;;67.50;9.80;;;;;;;;;;5128029;28;20228;-66
2022/01/12 04:48:02;;;;;;;66.47;8.52;;;;;;;;;;5124026;28;20240;-66
2022/01/12 04:50:30;;;;;;;68.53;9.52;;;;;;;;;;5129076;28;20215;-66
2022/01/12 04:52:58;;;;;;;66.32;8.68;;;;;;;;;;5130593;28;20328;-66
2022/01/12 04:55:25;;;;;;;71.97;9.65;;;;;;;;;;5130290;28;20236;-66
2022/01/12 04:57:52;;;;;;;68.20;9.80;;;;;;;;;;5130670;28;20212;-66
2022/01/12 05:00:21;;;;;;;64.03;8.30;;;;;;;;;;5130852;28;20234;-66
2022/01/12 05:08:24;;;;;;;68.10;10.27;;;;;;;;;;5127046;28;20219;-66
2022/01/12 05:13:51;;;;;;;69.35;8.93;;;;;;;;;;5063992;28;20194;-66
2022/01/12 05:16:19;;;;;;;65.82;8.20;;;;;;;;;;5063028;28;20298;-66
2022/01/12 05:18:47;;;;;;;65.45;8.13;;;;;;;;;;5090369;28;20228;-66
2022/01/12 05:21:16;;;;;;;65.45;8.57;;;;;;;;;;5124261;28;20744;-66
2022/01/12 05:23:44;;;;;;;66.05;8.65;;;;;;;;;;5126033;28;20283;-66
2022/01/12 05:26:11;;;;;;;66.85;9.43;;;;;;;;;;5125982;28;20204;-66
2022/01/12 05:28:39;;;;;;;67.57;9.45;;;;;;;;;;5125644;28;20208;-66
2022/01/12 05:31:06;;;;;;;66.70;10.10;;;;;;;;;;5125034;28;20216;-66
2022/01/12 05:33:34;;;;;;;66.53;9.15;;;;;;;;;;5128109;28;20201;-66
2022/01/12 05:36:03;;;;;;;65.72;8.32;;;;;;;;;;5127900;28;20232;-66
2022/01/12 05:38:32;;;;;;;67.63;9.20;;;;;;;;;;5125827;28;20209;-66
2022/01/12 05:41:00;;;;;;;67.00;9.68;;;;;;;;;;5127314;28;20700;-66
2022/01/12 05:43:29;;;;;;;70.93;9.45;;;;;;;;;;5124400;28;20668;-66
2022/01/12 05:45:57;;;;;;;67.55;9.13;;;;;;;;;;5125498;28;20234;-66
2022/01/12 05:51:11;;;;;;;70.78;9.40;;;;;;;;;;5088228;28;20693;-66
2022/01/12 05:53:40;;;;;;;69.78;11.07;;;;;;;;;;5113174;28;20214;-66
2022/01/12 05:56:07;;;;;;;69.22;10.43;;;;;;;;;;5112984;28;20210;-66
2022/01/12 05:58:34;;;;;;;72.28;10.35;;;;;;;;;;5112847;28;20208;-66
2022/01/12 06:01:01;;;;;;;69.72;9.75;;;;;;;;;;5113380;28;20200;-66
2022/01/12 06:03:28;;;;;;;70.30;10.52;;;;;;;;;;5112814;28;20696;-66
2022/01/12 06:05:55;;;;;;;71.25;10.63;;;;;;;;;;5113042;28;20676;-66
2022/01/12 06:08:23;;;;;;;72.35;11.60;;;;;;;;;;5110415;28;20215;-66
2022/01/12 06:10:51;;;;;;;68.78;9.93;;;;;;;;;;5113152;28;20205;-66
2022/01/12 06:13:18;;;;;;;69.65;10.93;;;;;;;;;;5112673;28;20204;-66
2022/01/12 06:15:45;;;;;;;67.18;10.30;;;;;;;;;;5114703;27;20682;-66
2022/01/12 06:18:13;;;;;;;68.40;9.95;;;;;;;;;;5116432;28;20728;-66
2022/01/12 06:20:40;;;;;;;71.47;10.68;;;;;;;;;;5112489;28;20215;-66
2022/01/12 06:23:07;;;;;;;70.10;10.77;;;;;;;;;;5112086;28;20779;-66
2022/01/12 06:25:34;;;;;;;71.10;10.48;;;;;;;;;;5112202;28;20295;-66
2022/01/12 06:28:22;;;;;;;71.63;11.18;;;;;;;;;;5111867;28;20291;-66
2022/01/12 06:33:34;;;;;;;69.35;9.77;;;;;;;;;;5111721;28;20286;-66
2022/01/12 06:36:01;;;;;;;71.10;10.82;;;;;;;;;;5112178;28;20208;-66
2022/01/12 06:38:28;;;;;;;69.20;10.18;;;;;;;;;;5112140;28;20696;-66
2022/01/12 06:40:55;;;;;;;70.03;9.70;;;;;;;;;;5110222;28;20707;-66
2022/01/12 06:43:24;;;;;;;65.32;10.07;;;;;;;;;;5112046;28;20223;-66
2022/01/12 06:45:51;;;;;;;68.07;9.60;;;;;;;;;;5112351;28;20204;-66
2022/01/12 06:48:18;;;;;;;68.32;10.20;;;;;;;;;;5111856;28;20232;-66
2022/01/12 06:50:45;;;;;;;68.03;10.20;;;;;;;;;;5112268;28;20211;-66
2022/01/12 06:53:12;;;;;;;69.15;10.05;;;;;;;;;;5111720;28;20743;-66
2022/01/12 06:55:40;;;;;;;69.43;11.18;;;;;;;;;;5111842;28;20200;-66
2022/01/12 06:58:07;;;;;;;67.63;9.50;;;;;;;;;;5111580;28;20210;-66
2022/01/12 07:00:35;;;;;;;74.05;12.23;;;;;;;;;;5112122;28;20578;-66
2022/01/12 07:03:02;;;;;;;73.72;13.15;;;;;;;;;;5112088;28;20232;-66
2022/01/12 07:05:29;;;;;;;75.63;11.30;;;;;;;;;;5111821;28;20200;-66
2022/01/12 07:07:57;;;;;;;70.15;10.88;;;;;;;;;;5111227;28;20224;-66
2022/01/12 07:10:24;;;;;;;68.07;10.95;;;;;;;;;;5111561;28;20207;-66
2022/01/12 07:12:51;;;;;;;72.57;11.40;;;;;;;;;;5092896;28;20232;-66
2022/01/12 07:15:18;;;;;;;75.75;12.20;;;;;;;;;;5090956;28;20691;-66
2022/01/12 07:17:48;;;;;;;75.70;12.25;;;;;;;;;;5090631;28;20219;-66
2022/01/12 07:20:16;;;;;;;68.88;11.48;;;;;;;;;;5094415;28;20664;-66
2022/01/12 07:22:43;;;;;;;72.00;11.77;;;;;;;;;;5111326;28;20228;-66
2022/01/12 07:25:10;;;;;;;71.60;10.48;;;;;;;;;;5111508;28;20210;-66
2022/01/12 07:27:38;;;;;;;68.65;10.57;;;;;;;;;;5110959;28;20212;-66
2022/01/12 07:30:06;;;;;;;72.20;11.82;;;;;;;;;;5114623;28;20239;-66
2022/01/12 07:32:33;;;;;;;69.07;10.60;;;;;;;;;;5115464;28;20307;-66
2022/01/12 07:35:01;;;;;;;69.82;12.40;;;;;;;;;;5115500;28;20236;-66
2022/01/12 07:37:29;;;;;;;74.75;11.75;;;;;;;;;;5115098;27;20776;-66
2022/01/12 07:39:56;;;;;;;72.25;11.93;;;;;;;;;;5115824;27;20226;-66
2022/01/12 07:42:23;;;;;;;75.55;13.05;;;;;;;;;;5114298;28;20224;-66
2022/01/12 07:44:57;;;;;;;71.28;10.98;;;;;;;;;;5114830;28;20253;-66
2022/01/12 07:47:25;;;;;;;70.75;11.52;;;;;;;;;;5115055;28;20204;-66
2022/01/12 07:49:52;;;;;;;75.63;12.50;;;;;;;;;;5114876;28;20210;-66
2022/01/12 07:52:20;;;;;;;73.13;12.30;;;;;;;;;;5114605;28;20219;-66
2022/01/12 07:54:48;;;;;;;76.00;14.18;;;;;;;;;;5114723;28;20370;-67
2022/01/12 07:57:15;;;;;;;74.15;12.25;;;;;;;;;;5114818;28;20227;-67
2022/01/12 07:59:42;;;;;;;72.55;13.85;;;;;;;;;;5115288;28;20205;-67
2022/01/12 08:02:10;;;;;;;75.57;12.27;;;;;;;;;;5114813;28;20320;-67
2022/01/12 08:04:38;;;;;;;70.80;12.52;;;;;;;;;;5114721;28;20233;-67
2022/01/12 08:07:06;;;;;;;73.07;13.00;;;;;;;;;;5114947;28;20233;-66
2022/01/12 08:09:35;;;;;;;74.60;12.85;;;;;;;;;;5114758;28;20215;-67
2022/01/12 08:12:02;;;;;;;71.50;12.68;;;;;;;;;;5115044;28;20224;-67
2022/01/12 08:14:29;;;;;;;71.32;12.80;;;;;;;;;;5112639;28;20203;-67
2022/01/12 08:16:56;;;;;;;72.45;12.75;;;;;;;;;;5114355;28;20207;-67
2022/01/12 08:19:24;;;;;;;77.60;13.25;;;;;;;;;;5114091;28;20315;-67
2022/01/12 08:21:52;;;;;;;73.22;13.27;;;;;;;;;;5114475;28;20224;-67
2022/01/12 08:24:19;;;;;;;75.32;13.75;;;;;;;;;;5114553;28;20224;-67
2022/01/12 08:26:47;;;;;;;75.60;14.13;;;;;;;;;;5114157;28;20200;-67
2022/01/12 08:29:16;;;;;;;77.25;15.07;;;;;;;;;;5114133;28;20410;-67
2022/01/12 08:31:43;;;;;;;71.10;12.10;;;;;;;;;;5113884;27;20247;-67
2022/01/12 08:34:10;;;;;;;76.43;12.98;;;;;;;;;;5114500;28;20200;-67
2022/01/12 08:36:38;;;;;;;72.60;12.65;;;;;;;;;;5114247;28;20295;-67
2022/01/12 08:39:07;;;;;;;75.43;15.05;;;;;;;;;;5113657;28;20676;-67
2022/01/12 08:41:34;;;;;;;72.53;12.90;;;;;;;;;;5113980;28;20256;-66
2022/01/12 08:44:02;;;;;;;76.20;14.48;;;;;;;;;;5114244;28;20221;-67
2022/01/12 08:46:30;;;;;;;76.07;14.55;;;;;;;;;;5114142;28;20585;-66
2022/01/12 08:48:57;;;;;;;79.63;14.93;;;;;;;;;;5114100;28;20208;-66
2022/01/12 08:51:24;;;;;;;77.38;14.02;;;;;;;;;;5114224;28;20220;-66
2022/01/12 08:53:51;;;;;;;73.70;14.45;;;;;;;;;;5114278;27;20211;-67
2022/01/12 08:56:19;;;;;;;75.28;13.15;;;;;;;;;;5113737;27;20210;-67
2022/01/12 08:58:46;;;;;;;75.07;14.20;;;;;;;;;;5113338;28;20214;-67
2022/01/12 09:01:15;;;;;;;75.20;15.07;;;;;;;;;;5113441;28;20250;-67
2022/01/12 09:03:42;;;;;;;73.63;14.35;;;;;;;;;;5114179;28;20224;-67
2022/01/12 09:06:09;;;;;;;73.10;13.85;;;;;;;;;;5113947;28;20295;-67
2022/01/12 09:08:38;;;;;;;71.35;13.27;;;;;;;;;;5113373;28;20695;-67
2022/01/12 09:11:06;;;;;;;71.47;11.82;;;;;;;;;;5113699;27;20232;-67
2022/01/12 09:13:33;;;;;;;75.43;14.35;;;;;;;;;;5113534;28;20228;-67
2022/01/12 09:16:06;;;;;;;72.75;13.48;;;;;;;;;;5113762;28;20575;-67
2022/01/12 09:18:34;;;;;;;69.32;12.40;;;;;;;;;;5113039;28;20204;-66
2022/01/12 09:21:02;;;;;;;69.53;12.50;;;;;;;;;;5113592;28;20208;-66
2022/01/12 09:23:29;;;;;;;73.07;12.27;;;;;;;;;;5110927;28;20740;-66
2022/01/12 09:25:56;;;;;;;76.30;15.00;;;;;;;;;;5113451;28;20195;-66
2022/01/12 09:28:23;;;;;;;72.15;13.05;;;;;;;;;;5113192;28;20234;-66
2022/01/12 09:30:52;;;;;;;71.95;13.35;;;;;;;;;;5113454;28;20291;-66
2022/01/12 09:33:20;;;;;;;74.72;13.80;;;;;;;;;;5113161;28;20203;-66
2022/01/12 09:35:49;;;;;;;76.07;12.50;;;;;;;;;;5113128;28;20762;-66
2022/01/12 09:38:17;;;;;;;73.03;12.75;;;;;;;;;;5112903;28;20260;-66
2022/01/12 09:40:45;;;;;;;70.38;12.75;;;;;;;;;;5112929;28;20212;-66
2022/01/12 09:43:12;;;;;;;72.38;12.98;;;;;;;;;;5112714;28;20314;-66
2022/01/12 09:45:43;;;;;;;74.30;14.45;;;;;;;;;;5112952;28;20204;-66
2022/01/12 09:48:10;;;;;;;70.75;12.50;;;;;;;;;;5112826;28;20208;-66
2022/01/12 09:50:38;;;;;;;75.82;13.57;;;;;;;;;;5113027;28;20207;-66
2022/01/12 09:53:06;;;;;;;73.80;13.13;;;;;;;;;;5111720;28;20223;-66
2022/01/12 09:55:34;;;;;;;71.82;12.20;;;;;;;;;;5110055;28;20730;-66
2022/01/12 09:58:01;;;;;;;71.47;11.85;;;;;;;;;;5112150;28;20200;-66
2022/01/12 10:00:28;;;;;;;77.97;15.07;;;;;;;;;;5112982;28;20203;-66
2022/01/12 10:02:57;;;;;;;71.15;13.18;;;;;;;;;;5112803;28;20234;-66
2022/01/12 10:05:31;;;;;;;70.97;12.52;;;;;;;;;;5112430;28;20322;-66
2022/01/12 10:08:10;;;;;;;71.95;12.63;;;;;;;;;;5112541;28;20214;-66
2022/01/12 10:10:37;;;;;;;69.03;11.25;;;;;;;;;;5112856;28;20638;-66
2022/01/12 10:13:04;;;;;;;70.47;11.35;;;;;;;;;;5112643;28;20220;-66
2022/01/12 10:15:31;;;;;;;69.77;11.50;;;;;;;;;;5112590;28;20205;-66
2022/01/12 10:18:02;;;;;;;68.20;9.70;;;;;;;;;;5111915;28;20647;-66
2022/01/12 10:20:30;;;;;;;68.40;10.20;;;;;;;;;;5112746;28;20450;-66
2022/01/12 10:22:59;;;;;;;66.10;9.57;;;;;;;;;;5112821;28;20531;-67
2022/01/12 10:25:28;;;;;;;69.10;9.77;;;;;;;;;;5110276;28;20485;-67
2022/01/12 10:27:56;;;;;;;69.00;10.53;;;;;;;;;;5112150;28;20454;-67
2022/01/12 10:30:24;;;;;;;64.77;8.70;;;;;;;;;;5112601;28;20541;-67
2022/01/12 10:33:01;;;;;;;68.23;9.77;;;;;;;;;;5112551;28;20469;-67
2022/01/12 10:35:28;;;;;;;65.70;9.57;;;;;;;;;;5112334;28;20511;-67
2022/01/12 10:38:06;;;;;;;70.33;10.30;;;;;;;;;;5111547;28;20442;-67
2022/01/12 10:40:45;;;;;;;68.30;10.07;;;;;;;;;;5111951;28;20477;-67
2022/01/12 10:43:26;;;;;;;65.70;9.13;;;;;;;;;;5112461;28;20869;-67
2022/01/12 10:45:53;;;;;;;68.47;10.57;;;;;;;;;;5111891;28;20482;-67
2022/01/12 10:48:20;;;;;;;67.13;9.50;;;;;;;;;;5111958;28;20800;-67
2022/01/12 10:50:53;;;;;;;63.97;8.93;;;;;;;;;;5112438;28;20456;-66
2022/01/12 10:53:27;;;;;;;64.53;9.03;;;;;;;;;;5112039;28;20882;-66
2022/01/12 10:56:02;;;;;;;66.47;9.33;;;;;;;;;;5112603;28;20438;-68
2022/01/12 10:58:29;;;;;;;62.80;8.63;;;;;;;;;;5109712;28;20648;-66
2022/01/12 11:00:58;;;;;;;64.57;9.23;;;;;;;;;;5111639;28;21041;-66
2022/01/12 11:03:25;;;;;;;64.57;9.50;;;;;;;;;;5112645;28;20524;-66
2022/01/12 11:05:54;;;;;;;63.97;8.37;;;;;;;;;;5115683;28;20560;-66
2022/01/12 11:08:22;;;;;;;65.20;9.90;;;;;;;;;;5115668;28;20464;-66
2022/01/12 11:10:49;;;;;;;63.97;9.00;;;;;;;;;;5116611;28;20446;-66
2022/01/12 11:13:19;;;;;;;66.60;10.50;;;;;;;;;;5116438;28;20449;-67
2022/01/12 11:15:47;;;;;;;65.07;9.40;;;;;;;;;;5116542;28;20836;-67
2022/01/12 11:18:15;;;;;;;67.10;9.40;;;;;;;;;;5115573;28;20803;-67
2022/01/12 11:20:43;;;;;;;63.77;8.80;;;;;;;;;;5115833;28;20542;-67
2022/01/12 11:23:12;;;;;;;64.40;8.60;;;;;;;;;;5115825;28;20468;-67
2022/01/12 11:25:41;;;;;;;65.80;9.50;;;;;;;;;;5115314;28;21089;-67
2022/01/12 11:28:09;;;;;;;63.37;7.83;;;;;;;;;;5113285;28;20949;-67
2022/01/12 11:30:38;;;;;;;64.70;8.80;;;;;;;;;;5115909;28;20456;-67
2022/01/12 11:33:07;;;;;;;64.90;9.10;;;;;;;;;;5115402;28;20553;-67
2022/01/12 11:35:36;;;;;;;64.40;8.30;;;;;;;;;;5115985;28;20516;-65
2022/01/12 11:38:04;;;;;;;64.70;8.90;;;;;;;;;;5115635;27;20456;-66
2022/01/12 11:40:35;;;;;;;63.67;8.40;;;;;;;;;;5115760;28;20450;-68
2022/01/12 11:43:02;;;;;;;66.37;9.10;;;;;;;;;;5115567;28;20469;-68
2022/01/12 11:45:29;;;;;;;62.50;7.50;;;;;;;;;;5113236;28;20478;-68
2022/01/12 11:47:58;;;;;;;67.17;9.87;;;;;;;;;;5115380;28;20456;-68
2022/01/12 11:50:25;;;;;;;65.83;9.20;;;;;;;;;;5115319;28;20521;-68
2022/01/12 11:52:52;;;;;;;64.90;9.30;;;;;;;;;;5115676;28;20895;-66
2022/01/12 11:55:21;;;;;;;63.57;8.50;;;;;;;;;;5115269;28;20524;-68
2022/01/12 11:57:49;;;;;;;63.20;7.90;;;;;;;;;;5115342;28;20448;-68
2022/01/12 12:00:17;;;;;;;64.50;9.10;;;;;;;;;;5114785;28;20446;-67
2022/01/12 12:02:46;;;;;;;65.40;8.73;;;;;;;;;;5115167;28;20965;-67
2022/01/12 12:05:15;;;;;;;69.10;9.33;;;;;;;;;;5114863;28;20487;-67
2022/01/12 12:07:48;;;;;;;65.00;9.10;;;;;;;;;;5114806;28;20835;-69
2022/01/12 12:10:15;;;;;;;65.53;9.70;;;;;;;;;;5115323;28;20944;-68
2022/01/12 12:12:43;;;;;;;66.70;9.50;;;;;;;;;;5114856;28;20908;-67
2022/01/12 12:15:11;;;;;;;64.50;8.57;;;;;;;;;;5114009;28;20445;-68
2022/01/12 12:17:38;;;;;;;65.80;10.00;;;;;;;;;;5114797;28;20879;-68
2022/01/12 12:20:08;;;;;;;63.33;8.17;;;;;;;;;;5114918;28;20529;-67
2022/01/12 12:22:39;;;;;;;65.20;9.43;;;;;;;;;;5115230;28;20474;-68
2022/01/12 12:25:07;;;;;;;64.30;9.20;;;;;;;;;;5115747;28;20477;-68
2022/01/12 12:27:35;;;;;;;69.47;10.03;;;;;;;;;;5115005;28;20454;-68
2022/01/12 12:30:03;;;;;;;65.00;9.00;;;;;;;;;;5114881;28;20446;-68
2022/01/12 12:32:37;;;;;;;65.53;9.17;;;;;;;;;;5114795;28;20572;-68
2022/01/12 12:35:06;;;;;;;65.60;8.77;;;;;;;;;;5114686;28;20448;-68
2022/01/12 12:37:38;;;;;;;65.63;9.70;;;;;;;;;;5114455;28;20446;-68
2022/01/12 12:40:14;;;;;;;67.80;9.43;;;;;;;;;;5114724;28;20533;-68
2022/01/12 12:42:41;;;;;;;65.27;8.97;;;;;;;;;;5114632;28;20836;-68
2022/01/12 12:45:09;;;;;;;66.30;9.47;;;;;;;;;;5114510;28;20514;-68
2022/01/12 12:47:36;;;;;;;64.50;8.80;;;;;;;;;;5114281;28;20449;-68
2022/01/12 12:50:08;;;;;;;68.73;10.30;;;;;;;;;;5114441;28;20442;-68
2022/01/12 12:52:35;;;;;;;66.17;9.00;;;;;;;;;;5114566;28;20485;-68
2022/01/12 12:55:05;;;;;;;64.43;8.60;;;;;;;;;;5114710;28;20533;-68
2022/01/12 12:57:32;;;;;;;65.87;9.90;;;;;;;;;;5114167;28;20446;-68
2022/01/12 13:00:08;;;;;;;67.03;9.13;;;;;;;;;;5114311;28;20947;-68
2022/01/12 13:02:36;;;;;;;64.77;8.60;;;;;;;;;;5114064;28;20827;-66
2022/01/12 13:05:04;;;;;;;63.40;8.00;;;;;;;;;;5114283;28;20482;-67
2022/01/12 13:07:36;;;;;;;65.07;8.53;;;;;;;;;;5113958;28;20533;-67
2022/01/12 13:10:06;;;;;;;65.87;8.70;;;;;;;;;;5114295;28;20802;-67
2022/01/12 13:12:38;;;;;;;65.60;8.90;;;;;;;;;;5114004;28;20497;-67
2022/01/12 13:15:06;;;;;;;62.93;7.60;;;;;;;;;;5114005;28;20446;-68
2022/01/12 13:17:33;;;;;;;66.07;8.70;;;;;;;;;;5113879;28;20503;-68
2022/01/12 13:22:46;;;;;;;64.10;8.70;;;;;;;;;;5113917;28;20437;-68
2022/01/12 13:25:16;;;;;;;63.83;8.37;;;;;;;;;;5113982;28;20589;-68
2022/01/12 13:27:45;;;;;;;64.27;8.20;;;;;;;;;;5112657;28;20448;-69
2022/01/12 13:30:22;;;;;;;64.57;8.07;;;;;;;;;;5114143;28;20503;-68
2022/01/12 13:32:51;;;;;;;65.17;8.17;;;;;;;;;;5113680;28;21003;-66
2022/01/12 13:35:19;;;;;;;64.07;8.87;;;;;;;;;;5113824;28;20478;-68
2022/01/12 13:37:53;;;;;;;64.17;9.53;;;;;;;;;;5113230;28;20946;-66
2022/01/12 13:40:22;;;;;;;66.70;9.77;;;;;;;;;;5113554;28;20794;-66
2022/01/12 13:42:51;;;;;;;64.07;8.50;;;;;;;;;;5113487;28;20465;-68
2022/01/12 13:45:21;;;;;;;65.63;9.47;;;;;;;;;;5113705;28;20438;-66
2022/01/12 13:47:50;;;;;;;63.43;8.13;;;;;;;;;;5113454;28;20807;-66
2022/01/12 13:50:19;;;;;;;65.03;9.23;;;;;;;;;;5113477;28;20449;-66
2022/01/12 13:52:54;;;;;;;65.30;10.03;;;;;;;;;;5113247;28;20505;-67
2022/01/12 13:55:22;;;;;;;64.70;8.87;;;;;;;;;;5113471;28;20891;-67
2022/01/12 13:57:56;;;;;;;65.37;10.00;;;;;;;;;;5113198;28;20449;-67
2022/01/12 14:00:24;;;;;;;65.93;9.20;;;;;;;;;;5113310;28;20960;-67
2022/01/12 14:02:51;;;;;;;63.67;9.50;;;;;;;;;;5112973;28;20466;-67
2022/01/12 14:05:20;;;;;;;63.77;8.93;;;;;;;;;;5113065;28;20445;-67
2022/01/12 14:08:00;;;;;;;64.80;8.60;;;;;;;;;;5112792;28;20495;-67
2022/01/12 14:10:30;;;;;;;65.57;9.50;;;;;;;;;;5113092;28;20525;-67
2022/01/12 14:12:58;;;;;;;64.97;9.70;;;;;;;;;;5112891;28;20466;-67
2022/01/12 14:15:26;;;;;;;64.23;9.50;;;;;;;;;;5112900;28;20565;-67
2022/01/12 14:17:54;;;;;;;64.90;9.40;;;;;;;;;;5112637;28;20930;-67
2022/01/12 14:20:22;;;;;;;66.33;9.73;;;;;;;;;;5113030;28;20453;-67
2022/01/12 14:22:51;;;;;;;66.33;10.37;;;;;;;;;;5112820;28;20468;-69
2022/01/12 14:25:19;;;;;;;66.17;10.33;;;;;;;;;;5113054;28;20811;-69
2022/01/12 14:27:48;;;;;;;64.97;9.50;;;;;;;;;;5114028;28;21018;-67
2022/01/12 14:30:16;;;;;;;65.40;9.83;;;;;;;;;;5114314;28;20450;-67
2022/01/12 14:32:44;;;;;;;67.47;11.07;;;;;;;;;;5112826;28;20461;-67
2022/01/12 14:35:12;;;;;;;64.37;9.10;;;;;;;;;;5112766;28;20480;-67
2022/01/12 14:37:39;;;;;;;71.90;11.30;;;;;;;;;;5112453;28;20449;-67
2022/01/12 14:40:07;;;;;;;63.83;9.10;;;;;;;;;;5112505;28;20942;-67
2022/01/12 14:42:41;;;;;;;65.27;8.80;;;;;;;;;;5112371;28;20565;-67
2022/01/12 14:45:10;;;;;;;66.27;9.87;;;;;;;;;;5112849;28;20434;-67
2022/01/12 14:47:37;;;;;;;65.70;9.63;;;;;;;;;;5112373;28;20507;-67
2022/01/12 14:50:05;;;;;;;67.80;10.20;;;;;;;;;;5112666;28;20968;-68
2022/01/12 14:52:32;;;;;;;68.67;10.83;;;;;;;;;;5112327;28;20473;-67
2022/01/12 14:54:59;;;;;;;65.50;9.80;;;;;;;;;;5112206;28;20538;-67
2022/01/12 14:57:26;;;;;;;65.40;8.53;;;;;;;;;;5112455;28;20807;-67
2022/01/12 14:59:53;;;;;;;66.77;10.17;;;;;;;;;;5112527;28;20446;-68
2022/01/12 15:02:22;;;;;;;65.60;8.83;;;;;;;;;;5112327;28;20906;-66
2022/01/12 15:04:49;;;;;;;65.40;8.87;;;;;;;;;;5112540;28;20457;-68
2022/01/12 15:07:16;;;;;;;64.37;9.00;;;;;;;;;;5112019;28;20444;-67
2022/01/12 15:09:44;;;;;;;64.37;8.93;;;;;;;;;;5112172;28;20548;-68
2022/01/12 15:12:15;;;;;;;67.87;10.10;;;;;;;;;;5112355;28;20466;-67
2022/01/12 15:14:56;;;;;;;67.27;9.50;;;;;;;;;;5112375;28;20828;-67
2022/01/12 15:17:25;;;;;;;66.53;9.83;;;;;;;;;;5111929;28;20491;-67
2022/01/12 15:19:52;;;;;;;65.80;9.57;;;;;;;;;;5112269;28;20444;-67
2022/01/12 15:22:20;;;;;;;66.07;9.40;;;;;;;;;;5112154;28;20458;-67
2022/01/12 15:24:47;;;;;;;66.33;10.40;;;;;;;;;;5112286;28;20444;-66
2022/01/12 15:27:15;;;;;;;66.90;10.03;;;;;;;;;;5112138;28;20444;-66
2022/01/12 15:29:42;;;;;;;69.80;9.40;;;;;;;;;;5112243;28;20469;-66
2022/01/12 15:32:10;;;;;;;67.87;10.43;;;;;;;;;;5112179;28;20468;-66
2022/01/12 15:34:38;;;;;;;66.47;9.17;;;;;;;;;;5111903;28;20537;-66
2022/01/12 15:37:06;;;;;;;64.30;9.25;;;;;;;;;;5112164;28;20478;-67
2022/01/12 15:39:33;;;;;;;66.40;9.15;;;;;;;;;;5112251;28;20300;-67
2022/01/12 15:42:00;;;;;;;65.97;9.18;;;;;;;;;;5112345;28;20323;-67
2022/01/12 15:44:27;;;;;;;65.13;9.20;;;;;;;;;;5112005;28;20205;-67
2022/01/12 15:46:55;;;;;;;66.07;9.45;;;;;;;;;;5111827;28;20291;-67